createdAt,value
2018-09-25T00:01:39.270Z,13.85
2018-09-25T00:03:50.547Z,13.83
2018-09-25T00:06:01.915Z,13.80
2018-09-25T00:08:13.749Z,13.80
2018-09-25T00:10:25.051Z,13.81
2018-09-25T00:12:36.031Z,13.82
2018-09-25T00:14:47.237Z,13.82
2018-09-25T00:16:58.533Z,13.80
2018-09-25T00:19:09.892Z,13.75
2018-09-25T00:21:21.788Z,13.65
2018-09-25T00:23:32.941Z,13.59
2018-09-25T00:25:44.667Z,13.52
2018-09-25T00:27:55.978Z,13.40
2018-09-25T00:30:07.234Z,13.31
2018-09-25T00:32:18.607Z,13.19
2018-09-25T00:34:29.789Z,13.12
2018-09-25T00:36:40.942Z,13.08
2018-09-25T00:38:52.170Z,13.09
2018-09-25T00:41:03.272Z,13.11
2018-09-25T00:43:14.831Z,13.04
2018-09-25T00:45:26.007Z,12.96
2018-09-25T00:47:37.083Z,12.86
2018-09-25T00:49:48.255Z,12.80
2018-09-25T00:52:00.014Z,12.74
2018-09-25T00:54:12.170Z,12.70
2018-09-25T00:56:23.483Z,12.61
2018-09-25T00:58:34.655Z,12.52
2018-09-25T01:00:45.976Z,12.42
2018-09-25T01:02:57.325Z,12.34
2018-09-25T01:05:08.600Z,12.30
2018-09-25T01:07:19.943Z,12.28
2018-09-25T01:09:31.213Z,12.25
2018-09-25T01:11:42.610Z,12.24
2018-09-25T01:13:54.275Z,12.22
2018-09-25T01:16:05.676Z,12.13
2018-09-25T01:18:16.855Z,12.05
2018-09-25T01:20:28.171Z,11.95
2018-09-25T01:22:39.827Z,11.88
2018-09-25T01:24:51.121Z,11.93
2018-09-25T01:27:02.439Z,12.00
2018-09-25T01:29:13.621Z,11.99
2018-09-25T01:31:24.823Z,11.93
2018-09-25T01:33:36.173Z,11.91
2018-09-25T01:35:47.729Z,11.96
2018-09-25T01:37:58.874Z,11.96
2018-09-25T01:40:10.095Z,11.93
2018-09-25T01:42:21.728Z,11.92
2018-09-25T01:44:33.621Z,11.99
2018-09-25T01:46:44.734Z,12.04
2018-09-25T01:48:55.962Z,12.02
2018-09-25T01:51:07.157Z,11.97
2018-09-25T01:53:18.763Z,11.90
2018-09-25T01:55:30.047Z,11.84
2018-09-25T01:57:41.910Z,11.79
2018-09-25T01:59:53.315Z,11.74
2018-09-25T02:02:04.634Z,11.70
2018-09-25T02:04:15.853Z,11.71
2018-09-25T02:06:27.035Z,11.79
2018-09-25T02:08:38.270Z,11.87
2018-09-25T02:10:49.356Z,11.92
2018-09-25T02:13:00.549Z,11.92
2018-09-25T02:15:11.996Z,11.91
2018-09-25T02:17:23.289Z,11.93
2018-09-25T02:19:34.723Z,11.94
2018-09-25T02:21:45.836Z,11.96
2018-09-25T02:23:57.207Z,12.04
2018-09-25T02:26:08.671Z,12.07
2018-09-25T02:28:21.489Z,12.09
2018-09-25T02:30:32.688Z,12.11
2018-09-25T02:32:44.132Z,12.10
2018-09-25T02:34:55.794Z,12.08
2018-09-25T02:37:06.985Z,12.10
2018-09-25T02:39:18.147Z,12.10
2018-09-25T02:41:29.224Z,12.12
2018-09-25T02:43:40.498Z,12.10
2018-09-25T02:45:52.314Z,11.99
2018-09-25T02:48:03.865Z,11.85
2018-09-25T02:50:15.108Z,11.74
2018-09-25T02:52:26.652Z,11.69
2018-09-25T02:54:37.880Z,11.68
2018-09-25T02:56:49.080Z,11.70
2018-09-25T02:59:00.362Z,11.74
2018-09-25T03:01:11.932Z,11.73
2018-09-25T03:03:23.520Z,11.73
2018-09-25T03:05:34.772Z,11.72
2018-09-25T03:07:46.020Z,11.69
2018-09-25T03:09:57.152Z,11.68
2018-09-25T03:12:08.400Z,11.68
2018-09-25T03:14:19.717Z,11.69
2018-09-25T03:16:31.101Z,11.67
2018-09-25T03:18:42.386Z,11.66
2018-09-25T03:20:53.703Z,11.67
2018-09-25T03:23:05.035Z,11.65
2018-09-25T03:25:17.706Z,11.63
2018-09-25T03:27:29.032Z,11.63
2018-09-25T03:29:40.928Z,11.58
2018-09-25T03:31:52.823Z,11.54
2018-09-25T03:34:04.220Z,11.50
2018-09-25T03:36:15.507Z,11.48
2018-09-25T03:38:26.878Z,11.42
2018-09-25T03:40:38.231Z,11.35
2018-09-25T03:42:49.595Z,11.29
2018-09-25T03:45:00.863Z,11.25
2018-09-25T03:47:12.327Z,11.22
2018-09-25T03:49:23.536Z,11.20
2018-09-25T03:51:34.714Z,11.19
2018-09-25T03:53:46.556Z,11.20
2018-09-25T03:55:58.128Z,11.21
2018-09-25T03:58:09.479Z,11.21
2018-09-25T04:00:20.513Z,11.22
2018-09-25T04:02:31.812Z,11.19
2018-09-25T04:04:43.082Z,11.19
2018-09-25T04:06:54.354Z,11.14
2018-09-25T04:09:06.346Z,11.02
2018-09-25T04:11:17.623Z,10.85
2018-09-25T04:13:28.884Z,10.72
2018-09-25T04:15:40.104Z,10.63
2018-09-25T04:17:51.362Z,10.67
2018-09-25T04:20:03.299Z,10.76
2018-09-25T04:22:15.070Z,10.81
2018-09-25T04:24:26.384Z,10.87
2018-09-25T04:26:37.802Z,10.90
2018-09-25T04:28:49.797Z,10.90
2018-09-25T04:31:01.212Z,10.90
2018-09-25T04:33:12.612Z,10.90
2018-09-25T04:35:23.801Z,10.89
2018-09-25T04:37:35.132Z,10.83
2018-09-25T04:39:46.418Z,10.79
2018-09-25T04:41:57.623Z,10.75
2018-09-25T04:44:08.883Z,10.69
2018-09-25T04:46:20.161Z,10.65
2018-09-25T04:48:31.732Z,10.63
2018-09-25T04:50:42.945Z,10.58
2018-09-25T04:52:54.331Z,10.51
2018-09-25T04:55:05.804Z,10.43
2018-09-25T04:57:17.315Z,10.35
2018-09-25T04:59:28.819Z,10.28
2018-09-25T05:01:40.125Z,10.22
2018-09-25T05:03:51.912Z,10.20
2018-09-25T05:06:03.067Z,10.25
2018-09-25T05:08:14.460Z,10.31
2018-09-25T05:10:26.513Z,10.34
2018-09-25T05:12:37.939Z,10.37
2018-09-25T05:14:48.989Z,10.38
2018-09-25T05:17:00.671Z,10.40
2018-09-25T05:19:12.472Z,10.43
2018-09-25T05:21:23.813Z,10.42
2018-09-25T05:23:35.194Z,10.36
2018-09-25T05:25:46.596Z,10.34
2018-09-25T05:27:57.903Z,10.36
2018-09-25T05:30:09.279Z,10.37
2018-09-25T05:32:20.653Z,10.37
2018-09-25T05:34:32.519Z,10.38
2018-09-25T05:36:43.921Z,10.36
2018-09-25T05:38:55.164Z,10.31
2018-09-25T05:41:07.111Z,10.26
2018-09-25T05:43:18.404Z,10.25
2018-09-25T05:45:29.668Z,10.26
2018-09-25T05:47:41.107Z,10.25
2018-09-25T05:49:52.567Z,10.25
2018-09-25T05:52:03.757Z,10.20
2018-09-25T05:54:15.024Z,10.18
2018-09-25T05:56:26.097Z,10.16
2018-09-25T05:58:37.489Z,10.20
2018-09-25T06:00:48.883Z,10.28
2018-09-25T06:03:00.887Z,10.41
2018-09-25T06:05:12.620Z,10.57
2018-09-25T06:07:24.404Z,10.78
2018-09-25T06:09:35.677Z,11.00
2018-09-25T06:11:46.904Z,11.21
2018-09-25T06:13:58.204Z,11.34
2018-09-25T06:16:09.592Z,11.48
2018-09-25T06:18:21.787Z,11.61
2018-09-25T06:20:33.220Z,11.71
2018-09-25T06:22:44.571Z,11.75
2018-09-25T06:24:56.424Z,11.77
2018-09-25T06:27:07.996Z,11.78
2018-09-25T06:29:19.404Z,11.81
2018-09-25T06:31:30.801Z,11.87
2018-09-25T06:33:42.000Z,11.93
2018-09-25T06:35:53.152Z,11.98
2018-09-25T06:38:04.469Z,12.01
2018-09-25T06:40:16.161Z,12.04
2018-09-25T06:42:27.678Z,12.03
2018-09-25T06:44:38.960Z,12.03
2018-09-25T06:46:50.296Z,12.02
2018-09-25T06:49:01.448Z,12.01
2018-09-25T06:51:12.554Z,12.02
2018-09-25T06:53:24.001Z,12.05
2018-09-25T06:55:35.324Z,12.10
2018-09-25T06:57:46.644Z,12.16
2018-09-25T06:59:58.424Z,12.21
2018-09-25T07:02:09.720Z,12.27
2018-09-25T07:04:21.090Z,12.34
2018-09-25T07:06:32.455Z,12.38
2018-09-25T07:08:44.813Z,12.43
2018-09-25T07:10:56.398Z,12.47
2018-09-25T07:13:07.937Z,12.53
2018-09-25T07:15:19.373Z,12.57
2018-09-25T07:17:30.939Z,12.63
2018-09-25T07:19:42.141Z,12.68
2018-09-25T07:21:53.445Z,12.74
2018-09-25T07:24:05.379Z,12.81
2018-09-25T07:26:16.744Z,12.84
2018-09-25T07:28:28.192Z,12.87
2018-09-25T07:30:39.404Z,12.92
2018-09-25T07:32:50.552Z,12.97
2018-09-25T07:35:01.973Z,13.03
2018-09-25T07:37:13.046Z,13.08
2018-09-25T07:39:24.411Z,13.12
2018-09-25T07:41:36.417Z,13.18
2018-09-25T07:43:47.593Z,13.21
2018-09-25T07:45:58.801Z,13.27
2018-09-25T07:50:38.059Z,13.40
2018-09-25T07:52:49.300Z,13.45
2018-09-25T07:55:00.712Z,13.49
2018-09-25T07:57:13.032Z,13.53
2018-09-25T07:59:24.393Z,13.58
2018-09-25T08:01:35.593Z,13.64
2018-09-25T08:03:46.790Z,13.68
2018-09-25T08:05:58.161Z,13.74
2018-09-25T08:08:09.580Z,13.80
2018-09-25T08:10:20.916Z,13.86
2018-09-25T08:12:32.401Z,13.92
2018-09-25T08:14:43.554Z,13.97
2018-09-25T08:16:54.929Z,14.01
2018-09-25T08:19:06.124Z,14.06
2018-09-25T08:21:17.451Z,14.11
2018-09-25T08:23:29.403Z,14.18
2018-09-25T08:25:40.935Z,14.22
2018-09-25T08:27:52.184Z,14.28
2018-09-25T08:30:03.297Z,14.33
2018-09-25T08:32:14.691Z,14.37
2018-09-25T08:34:26.051Z,14.41
2018-09-25T08:36:37.456Z,14.45
2018-09-25T08:38:48.877Z,14.50
2018-09-25T08:41:00.081Z,14.57
2018-09-25T08:43:11.779Z,14.63
2018-09-25T08:45:23.047Z,14.68
2018-09-25T08:47:34.254Z,14.73
2018-09-25T08:49:46.236Z,14.77
2018-09-25T08:51:57.782Z,14.81
2018-09-25T08:54:09.167Z,14.87
2018-09-25T08:56:20.487Z,14.91
2018-09-25T08:58:31.890Z,14.95
2018-09-25T09:00:44.043Z,15.00
2018-09-25T09:02:55.340Z,15.06
2018-09-25T09:05:06.469Z,15.14
2018-09-25T09:07:17.678Z,15.20
2018-09-25T09:09:28.854Z,15.25
2018-09-25T09:11:40.044Z,15.33
2018-09-25T09:13:51.198Z,15.37
2018-09-25T09:16:02.670Z,15.43
2018-09-25T09:18:14.177Z,15.50
2018-09-25T09:20:25.377Z,15.58
2018-09-25T09:22:36.811Z,15.65
2018-09-25T09:24:48.099Z,15.72
2018-09-25T09:26:59.508Z,15.74
2018-09-25T09:29:10.827Z,15.78
2018-09-25T09:31:22.096Z,15.84
2018-09-25T09:33:33.361Z,15.90
2018-09-25T09:35:44.791Z,15.97
2018-09-25T09:37:55.937Z,16.01
2018-09-25T09:40:07.100Z,16.07
2018-09-25T09:42:18.554Z,16.11
2018-09-25T09:44:30.072Z,16.16
2018-09-25T09:46:41.416Z,16.20
2018-09-25T09:48:52.848Z,16.26
2018-09-25T09:51:04.036Z,16.34
2018-09-25T09:53:15.506Z,16.38
2018-09-25T09:55:26.648Z,16.43
2018-09-25T09:57:37.812Z,16.48
2018-09-25T09:59:50.438Z,16.53
2018-09-25T10:02:01.593Z,16.59
2018-09-25T10:04:12.962Z,16.60
2018-09-25T10:06:24.670Z,16.65
2018-09-25T10:08:36.930Z,16.69
2018-09-25T10:10:48.058Z,16.72
2018-09-25T10:12:59.291Z,16.80
2018-09-25T10:15:10.710Z,16.82
2018-09-25T10:17:22.708Z,16.85
2018-09-25T10:19:33.998Z,16.88
2018-09-25T10:21:45.496Z,16.91
2018-09-25T10:23:56.707Z,16.96
2018-09-25T10:26:07.994Z,16.99
2018-09-25T10:28:19.181Z,16.98
2018-09-25T10:30:30.491Z,16.98
2018-09-25T10:32:41.756Z,16.98
2018-09-25T10:34:53.183Z,17.00
2018-09-25T10:37:04.552Z,17.01
2018-09-25T10:39:15.780Z,17.00
2018-09-25T10:41:27.785Z,16.99
2018-09-25T10:43:39.131Z,16.99
2018-09-25T10:45:50.494Z,17.02
2018-09-25T10:48:01.748Z,17.03
2018-09-25T10:50:13.205Z,17.03
2018-09-25T10:52:24.376Z,17.03
2018-09-25T10:54:35.586Z,17.02
2018-09-25T10:56:46.815Z,17.02
2018-09-25T10:58:58.754Z,17.05
2018-09-25T11:01:10.490Z,17.12
2018-09-25T11:03:21.968Z,17.18
2018-09-25T11:05:33.259Z,17.20
2018-09-25T11:07:44.391Z,17.23
2018-09-25T11:09:55.798Z,17.25
2018-09-25T11:12:06.986Z,17.28
2018-09-25T11:14:18.441Z,17.29
2018-09-25T11:16:29.856Z,17.34
2018-09-25T11:18:41.227Z,17.36
2018-09-25T11:20:53.055Z,17.39
2018-09-25T11:23:04.560Z,17.45
2018-09-25T11:25:16.562Z,17.49
2018-09-25T11:27:28.477Z,17.51
2018-09-25T11:29:39.833Z,17.51
2018-09-25T11:31:51.016Z,17.52
2018-09-25T11:34:02.290Z,17.53
2018-09-25T11:36:14.173Z,17.55
2018-09-25T11:38:25.560Z,17.58
2018-09-25T11:40:36.967Z,17.59
2018-09-25T11:42:49.445Z,17.62
2018-09-25T11:45:00.816Z,17.63
2018-09-25T11:47:12.189Z,17.68
2018-09-25T11:49:23.398Z,17.71
2018-09-25T11:51:35.122Z,17.74
2018-09-25T11:53:47.119Z,17.73
2018-09-25T11:55:58.284Z,17.76
2018-09-25T11:58:09.756Z,17.79
2018-09-25T12:00:21.744Z,17.83
2018-09-25T12:02:33.107Z,17.83
2018-09-25T12:04:45.037Z,17.84
2018-09-25T12:06:56.503Z,17.85
2018-09-25T12:09:07.768Z,17.86
2018-09-25T12:11:19.124Z,17.89
2018-09-25T12:13:30.286Z,17.91
2018-09-25T12:15:41.407Z,17.92
2018-09-25T12:17:52.874Z,17.93
2018-09-25T12:20:04.253Z,17.95
2018-09-25T12:22:15.420Z,17.97
2018-09-25T12:24:26.910Z,18.00
2018-09-25T12:26:38.560Z,18.00
2018-09-25T12:28:49.914Z,18.02
2018-09-25T12:31:01.190Z,18.06
2018-09-25T12:33:12.691Z,18.09
2018-09-25T12:35:24.169Z,18.13
2018-09-25T12:37:35.754Z,18.16
2018-09-25T12:39:46.974Z,18.19
2018-09-25T12:41:58.480Z,18.24
2018-09-25T12:44:09.972Z,18.29
2018-09-25T12:46:21.898Z,18.34
2018-09-25T12:48:33.261Z,18.35
2018-09-25T12:50:45.404Z,18.34
2018-09-25T12:52:57.663Z,18.35
2018-09-25T12:55:08.949Z,18.36
2018-09-25T12:57:20.417Z,18.37
2018-09-25T12:59:31.876Z,18.40
2018-09-25T13:01:43.255Z,18.44
2018-09-25T13:03:54.577Z,18.47
2018-09-25T13:06:05.920Z,18.51
2018-09-25T13:08:17.040Z,18.53
2018-09-25T13:10:28.376Z,18.57
2018-09-25T13:12:39.836Z,18.59
2018-09-25T13:14:51.080Z,18.60
2018-09-25T13:17:02.520Z,18.63
2018-09-25T13:19:14.029Z,18.66
2018-09-25T13:21:25.212Z,18.65
2018-09-25T13:23:37.492Z,18.68
2018-09-25T13:25:48.691Z,18.69
2018-09-25T13:28:00.142Z,18.69
2018-09-25T13:30:11.905Z,18.69
2018-09-25T13:32:23.121Z,18.68
2018-09-25T13:34:34.664Z,18.70
2018-09-25T13:36:46.655Z,18.72
2018-09-25T13:38:57.916Z,18.74
2018-09-25T13:41:09.186Z,18.75
2018-09-25T13:43:20.613Z,18.76
2018-09-25T13:45:31.838Z,18.79
2018-09-25T13:47:43.035Z,18.82
2018-09-25T13:49:54.288Z,18.85
2018-09-25T13:52:05.552Z,18.85
2018-09-25T13:54:17.612Z,18.83
2018-09-25T13:56:28.801Z,18.82
2018-09-25T13:58:40.053Z,18.84
2018-09-25T14:00:51.549Z,18.87
2018-09-25T14:03:02.983Z,18.91
2018-09-25T14:05:14.741Z,18.92
2018-09-25T14:07:26.104Z,18.93
2018-09-25T14:09:37.501Z,18.92
2018-09-25T14:11:49.159Z,18.93
2018-09-25T14:14:00.418Z,18.95
2018-09-25T14:16:12.121Z,18.97
2018-09-25T14:18:23.573Z,18.98
2018-09-25T14:20:34.812Z,18.99
2018-09-25T14:22:46.039Z,18.98
2018-09-25T14:24:57.282Z,18.97
2018-09-25T14:27:08.622Z,18.95
2018-09-25T14:29:20.210Z,18.94
2018-09-25T14:31:31.446Z,18.95
2018-09-25T14:33:42.684Z,18.93
2018-09-25T14:35:53.914Z,18.96
2018-09-25T14:38:05.142Z,19.00
2018-09-25T14:40:16.576Z,19.04
2018-09-25T14:42:28.514Z,19.08
2018-09-25T14:44:39.973Z,19.09
2018-09-25T14:46:51.153Z,19.09
2018-09-25T14:49:02.222Z,19.11
2018-09-25T14:51:13.699Z,19.14
2018-09-25T14:53:25.465Z,19.17
2018-09-25T14:55:37.003Z,19.19
2018-09-25T14:57:48.332Z,19.21
2018-09-25T14:59:59.568Z,19.19
2018-09-25T15:02:10.896Z,19.21
2018-09-25T15:04:22.320Z,19.19
2018-09-25T15:06:33.604Z,19.18
2018-09-25T15:08:44.897Z,19.18
2018-09-25T15:10:56.265Z,19.18
2018-09-25T15:13:07.661Z,19.17
2018-09-25T15:15:19.421Z,19.17
2018-09-25T15:17:30.637Z,19.17
2018-09-25T15:19:41.878Z,19.18
2018-09-25T15:21:53.423Z,19.18
2018-09-25T15:24:04.675Z,19.17
2018-09-25T15:26:15.907Z,19.15
2018-09-25T15:28:27.234Z,19.09
2018-09-25T15:30:38.649Z,19.08
2018-09-25T15:32:49.675Z,19.04
2018-09-25T15:35:00.877Z,19.03
2018-09-25T15:37:12.379Z,19.01
2018-09-25T15:39:23.764Z,19.01
2018-09-25T15:41:35.095Z,19.02
2018-09-25T15:43:47.096Z,19.00
2018-09-25T15:45:58.551Z,18.99
2018-09-25T15:48:10.440Z,18.98
2018-09-25T15:50:21.661Z,18.98
2018-09-25T15:52:33.225Z,18.95
2018-09-25T15:54:45.583Z,18.94
2018-09-25T15:56:56.879Z,18.93
2018-09-25T15:59:08.116Z,18.88
2018-09-25T16:01:19.604Z,18.87
2018-09-25T16:03:30.877Z,18.86
2018-09-25T16:05:42.226Z,18.86
2018-09-25T16:07:53.665Z,18.84
2018-09-25T16:10:04.919Z,18.83
2018-09-25T16:12:16.160Z,18.83
2018-09-25T16:14:27.311Z,18.81
2018-09-25T16:16:38.821Z,18.77
2018-09-25T16:18:50.241Z,18.71
2018-09-25T16:21:01.596Z,18.67
2018-09-25T16:23:13.005Z,18.63
2018-09-25T16:25:24.457Z,18.59
2018-09-25T16:27:35.619Z,18.58
2018-09-25T16:29:47.077Z,18.54
2018-09-25T16:31:58.669Z,18.53
2018-09-25T16:34:09.881Z,18.51
2018-09-25T16:36:21.195Z,18.48
2018-09-25T16:38:32.449Z,18.44
2018-09-25T16:40:43.713Z,18.41
2018-09-25T16:42:55.092Z,18.37
2018-09-25T16:45:06.782Z,18.33
2018-09-25T16:47:18.036Z,18.30
2018-09-25T16:49:29.219Z,18.27
2018-09-25T16:51:40.678Z,18.25
2018-09-25T16:53:51.983Z,18.25
2018-09-25T16:56:03.192Z,18.22
2018-09-25T16:58:17.303Z,18.19
2018-09-25T17:00:28.742Z,18.15
2018-09-25T17:02:40.590Z,18.09
2018-09-25T17:04:51.850Z,18.05
2018-09-25T17:07:03.296Z,18.02
2018-09-25T17:09:15.312Z,18.00
2018-09-25T17:11:26.731Z,17.96
2018-09-25T17:13:38.568Z,17.94
2018-09-25T17:15:50.393Z,17.90
2018-09-25T17:18:01.638Z,17.84
2018-09-25T17:20:12.920Z,17.79
2018-09-25T17:22:24.452Z,17.75
2018-09-25T17:24:35.737Z,17.69
2018-09-25T17:26:47.136Z,17.64
2018-09-25T17:28:58.457Z,17.58
2018-09-25T17:31:09.907Z,17.52
2018-09-25T17:33:21.244Z,17.46
2018-09-25T17:35:32.708Z,17.41
2018-09-25T17:37:44.093Z,17.36
2018-09-25T17:39:55.451Z,17.31
2018-09-25T17:42:06.795Z,17.26
2018-09-25T17:44:18.208Z,17.21
2018-09-25T17:46:29.528Z,17.17
2018-09-25T17:48:40.832Z,17.14
2018-09-25T17:50:52.073Z,17.09
2018-09-25T17:53:03.540Z,17.05
2018-09-25T17:55:14.699Z,17.00
2018-09-25T17:57:26.004Z,16.95
2018-09-25T17:59:37.394Z,16.91
2018-09-25T18:01:48.811Z,16.88
2018-09-25T18:04:00.121Z,16.83
2018-09-25T18:06:11.531Z,16.76
2018-09-25T18:08:22.965Z,16.71
2018-09-25T18:10:34.368Z,16.67
2018-09-25T18:12:46.304Z,16.63
2018-09-25T18:14:57.469Z,16.59
2018-09-25T18:17:08.857Z,16.54
2018-09-25T18:19:20.117Z,16.52
2018-09-25T18:21:31.665Z,16.50
2018-09-25T18:23:42.921Z,16.46
2018-09-25T18:25:54.462Z,16.43
2018-09-25T18:28:05.754Z,16.40
2018-09-25T18:30:16.972Z,16.37
2018-09-25T18:32:28.414Z,16.33
2018-09-25T18:34:39.654Z,16.31
2018-09-25T18:36:50.953Z,16.27
2018-09-25T18:39:02.452Z,16.23
2018-09-25T18:41:13.861Z,16.19
2018-09-25T18:43:25.073Z,16.15
2018-09-25T18:45:36.573Z,16.12
2018-09-25T18:47:48.323Z,16.07
2018-09-25T18:49:59.503Z,16.01
2018-09-25T18:52:10.814Z,15.96
2018-09-25T18:54:22.205Z,15.90
2018-09-25T18:56:34.353Z,15.85
2018-09-25T18:58:45.844Z,15.78
2018-09-25T19:00:57.179Z,15.74
2018-09-25T19:03:08.740Z,15.70
2018-09-25T19:05:20.140Z,15.65
2018-09-25T19:07:31.392Z,15.61
2018-09-25T19:09:43.561Z,15.56
2018-09-25T19:11:55.777Z,15.53
2018-09-25T19:14:07.115Z,15.47
2018-09-25T19:16:18.326Z,15.44
2018-09-25T19:18:29.728Z,15.42
2018-09-25T19:20:41.089Z,15.41
2018-09-25T19:22:53.076Z,15.39
2018-09-25T19:25:04.256Z,15.38
2018-09-25T19:27:15.392Z,15.38
2018-09-25T19:29:26.663Z,15.39
2018-09-25T19:31:38.072Z,15.41
2018-09-25T19:33:49.366Z,15.41
2018-09-25T19:36:00.984Z,15.44
2018-09-25T19:38:12.697Z,15.44
2018-09-25T19:40:24.169Z,15.45
2018-09-25T19:42:36.294Z,15.43
2018-09-25T19:44:47.808Z,15.43
2018-09-25T19:46:59.927Z,15.44
2018-09-25T19:49:11.491Z,15.44
2018-09-25T19:51:22.897Z,15.43
2018-09-25T19:53:34.249Z,15.44
2018-09-25T19:55:46.407Z,15.44
2018-09-25T19:57:57.720Z,15.44
2018-09-25T20:00:08.899Z,15.41
2018-09-25T20:02:20.042Z,15.42
2018-09-25T20:04:31.929Z,15.42
2018-09-25T20:06:43.267Z,15.40
2018-09-25T20:08:54.593Z,15.37
2018-09-25T20:11:05.879Z,15.30
2018-09-25T20:13:17.360Z,15.23
2018-09-25T20:15:29.022Z,15.16
2018-09-25T20:17:40.677Z,15.11
2018-09-25T20:19:52.029Z,15.10
2018-09-25T20:22:03.281Z,15.09
2018-09-25T20:24:14.711Z,15.07
2018-09-25T20:26:25.976Z,15.03
2018-09-25T20:28:37.518Z,15.01
2018-09-25T20:30:49.466Z,15.01
2018-09-25T20:33:01.512Z,15.03
2018-09-25T20:35:12.869Z,15.02
2018-09-25T20:37:24.026Z,15.01
2018-09-25T20:39:35.335Z,15.01
2018-09-25T20:41:46.648Z,14.99
2018-09-25T20:43:58.028Z,14.96
2018-09-25T20:46:09.488Z,14.95
2018-09-25T20:48:20.807Z,14.93
2018-09-25T20:50:32.629Z,14.90
2018-09-25T20:52:44.223Z,14.88
2018-09-25T20:54:55.513Z,14.86
2018-09-25T20:57:07.016Z,14.82
2018-09-25T20:59:18.395Z,14.80
2018-09-25T21:01:29.684Z,14.77
2018-09-25T21:03:41.288Z,14.76
2018-09-25T21:05:52.710Z,14.74
2018-09-25T21:08:04.078Z,14.72
2018-09-25T21:10:15.284Z,14.71
2018-09-25T21:12:26.510Z,14.70
2018-09-25T21:14:37.648Z,14.66
2018-09-25T21:16:50.757Z,14.66
2018-09-25T21:19:02.496Z,14.62
2018-09-25T21:21:13.883Z,14.58
2018-09-25T21:23:25.272Z,14.55
2018-09-25T21:25:36.518Z,14.54
2018-09-25T21:27:47.935Z,14.54
2018-09-25T21:29:59.427Z,14.48
2018-09-25T21:32:12.415Z,14.41
2018-09-25T21:34:23.860Z,14.29
2018-09-25T21:36:35.219Z,14.18
2018-09-25T21:38:46.498Z,14.07
2018-09-25T21:40:57.912Z,13.95
2018-09-25T21:43:10.000Z,13.80
2018-09-25T21:45:21.311Z,13.66
2018-09-25T21:47:32.472Z,13.51
2018-09-25T21:49:43.781Z,13.44
2018-09-25T21:51:55.914Z,13.43
2018-09-25T21:54:07.043Z,13.47
2018-09-25T21:56:18.667Z,13.53
2018-09-25T21:58:30.104Z,13.56
2018-09-25T22:00:41.462Z,13.56
2018-09-25T22:02:53.284Z,13.52
2018-09-25T22:05:04.407Z,13.45
2018-09-25T22:07:15.791Z,13.34
2018-09-25T22:09:27.051Z,13.21
2018-09-25T22:11:38.522Z,13.09
2018-09-25T22:13:49.859Z,12.97
2018-09-25T22:16:01.244Z,12.87
2018-09-25T22:18:12.473Z,12.79
2018-09-25T22:20:23.621Z,12.70
2018-09-25T22:22:35.048Z,12.66
2018-09-25T22:24:47.138Z,12.60
2018-09-25T22:26:58.213Z,12.58
2018-09-25T22:29:09.390Z,12.62
2018-09-25T22:31:20.629Z,12.60
2018-09-25T22:33:32.115Z,12.64
2018-09-25T22:35:43.385Z,12.66
2018-09-25T22:37:54.751Z,12.71
2018-09-25T22:40:06.196Z,12.80
2018-09-25T22:42:17.899Z,12.87
2018-09-25T22:44:29.709Z,12.93
2018-09-25T22:46:41.053Z,12.97
2018-09-25T22:48:52.165Z,12.98
2018-09-25T22:51:03.564Z,13.00
2018-09-25T22:53:14.971Z,13.02
2018-09-25T22:55:26.306Z,13.03
2018-09-25T22:57:37.781Z,13.02
2018-09-25T22:59:49.241Z,13.00
2018-09-25T23:02:00.912Z,12.99
2018-09-25T23:04:12.359Z,13.01
2018-09-25T23:06:24.285Z,12.99
2018-09-25T23:08:36.413Z,12.84
2018-09-25T23:10:47.746Z,12.62
2018-09-25T23:12:59.212Z,12.39
2018-09-25T23:15:10.680Z,12.19
2018-09-25T23:17:22.513Z,12.05
2018-09-25T23:19:33.888Z,12.03
2018-09-25T23:21:45.212Z,12.11
2018-09-25T23:23:57.824Z,12.18
2018-09-25T23:26:09.338Z,12.23
2018-09-25T23:28:20.574Z,12.25
2018-09-25T23:30:31.915Z,12.27
2018-09-25T23:32:43.327Z,12.25
2018-09-25T23:34:54.493Z,12.22
2018-09-25T23:37:05.861Z,12.19
2018-09-25T23:39:17.113Z,12.16
2018-09-25T23:41:32.961Z,12.13
2018-09-25T23:43:44.196Z,12.07
2018-09-25T23:45:56.610Z,12.01
2018-09-25T23:48:11.143Z,12.00
2018-09-25T23:50:22.955Z,11.96
2018-09-25T23:52:33.186Z,12.00
2018-09-25T23:54:49.576Z,12.02
2018-09-25T23:57:06.203Z,11.99
2018-09-25T23:59:18.071Z,11.93
